Bethel, Connecticut
Current Conditions -  °F | °C
As of 4:53 PM on Tuesday 25 Nov 2014 (Local Time) from KDXR Reporting Station
Clear Clear  
Wind Chill: 47°   Ceiling: Unl
Heat Index: 47°   Visibility: 10mi
Dew Point: 28°   Wind: 0mph
Humidity: 48%   Direction: NA
Pressure: 30.01"   Gusts: NA
Location:  41.37°N, 73.41°W
Report Text: KDXR 252153Z 00000KT 10SM CLR 08/M02 A3001 RMK AO2 SLP163 T00831022
Loading
Personal Weather Stations






























Interactive Weather Map New forecast layout! Learn more

10-Day Weather Forecast

Advertisements
Track Severe Weather on mobile